sensor_id;sensor_type;location;lat;lon;timestamp;temperature;humidity
27368;DHT22;14839;48.106;11.618;2023-04-24T04:01:57;9.10;94.60
27368;DHT22;14839;48.106;11.618;2023-04-24T04:04:23;9.10;94.60
27368;DHT22;14839;48.106;11.618;2023-04-24T04:06:48;9.10;94.60
27368;DHT22;14839;48.106;11.618;2023-04-24T04:09:14;9.10;94.60
27368;DHT22;14839;48.106;11.618;2023-04-24T04:11:40;9.10;94.60
27368;DHT22;14839;48.106;11.618;2023-04-24T04:14:05;9.20;94.60
27368;DHT22;14839;48.106;11.618;2023-04-24T04:16:31;9.20;94.60
27368;DHT22;14839;48.106;11.618;2023-04-24T04:18:56;9.20;94.60
27368;DHT22;14839;48.106;11.618;2023-04-24T04:21:22;9.20;94.60
27368;DHT22;14839;48.106;11.618;2023-04-24T04:23:48;9.10;94.60
27368;DHT22;14839;48.106;11.618;2023-04-24T04:26:14;9.10;94.60
27368;DHT22;14839;48.106;11.618;2023-04-24T04:28:39;9.10;94.60
27368;DHT22;14839;48.106;11.618;2023-04-24T04:31:05;9.10;94.60
27368;DHT22;14839;48.106;11.618;2023-04-24T04:33:33;9.00;94.60
27368;DHT22;14839;48.106;11.618;2023-04-24T04:35:59;9.00;94.60
27368;DHT22;14839;48.106;11.618;2023-04-24T04:38:25;9.00;94.60
27368;DHT22;14839;48.106;11.618;2023-04-24T04:40:55;9.00;94.60
27368;DHT22;14839;48.106;11.618;2023-04-24T04:43:23;9.00;94.60
27368;DHT22;14839;48.106;11.618;2023-04-24T04:45:49;9.00;94.60
27368;DHT22;14839;48.106;11.618;2023-04-24T04:48:16;9.00;94.60
27368;DHT22;14839;48.106;11.618;2023-04-24T04:50:43;9.00;94.60
27368;DHT22;14839;48.106;11.618;2023-04-24T04:53:11;9.00;94.60
27368;DHT22;14839;48.106;11.618;2023-04-24T04:55:37;9.00;94.60
27368;DHT22;14839;48.106;11.618;2023-04-24T04:58:03;9.10;94.60
27368;DHT22;14839;48.106;11.618;2023-04-24T05:00:28;9.10;94.60
27368;DHT22;14839;48.106;11.618;2023-04-24T05:02:59;9.10;94.60
27368;DHT22;14839;48.106;11.618;2023-04-24T05:05:25;9.10;94.60
27368;DHT22;14839;48.106;11.618;2023-04-24T05:07:50;9.10;94.60
27368;DHT22;14839;48.106;11.618;2023-04-24T05:10:16;9.00;94.60
27368;DHT22;14839;48.106;11.618;2023-04-24T05:12:41;9.00;94.60
27368;DHT22;14839;48.106;11.618;2023-04-24T05:15:07;9.00;94.60
27368;DHT22;14839;48.106;11.618;2023-04-24T05:17:33;9.10;94.60
27368;DHT22;14839;48.106;11.618;2023-04-24T05:19:59;9.10;94.60
27368;DHT22;14839;48.106;11.618;2023-04-24T05:22:26;9.10;94.60
27368;DHT22;14839;48.106;11.618;2023-04-24T05:24:52;9.10;94.60
27368;DHT22;14839;48.106;11.618;2023-04-24T05:27:18;9.20;94.60
27368;DHT22;14839;48.106;11.618;2023-04-24T05:29:44;9.30;94.60
27368;DHT22;14839;48.106;11.618;2023-04-24T05:32:10;9.30;94.60
27368;DHT22;14839;48.106;11.618;2023-04-24T05:34:35;9.40;94.60
27368;DHT22;14839;48.106;11.618;2023-04-24T05:37:01;9.50;94.60
27368;DHT22;14839;48.106;11.618;2023-04-24T05:39:27;9.50;94.60
27368;DHT22;14839;48.106;11.618;2023-04-24T05:41:52;9.60;94.60
27368;DHT22;14839;48.106;11.618;2023-04-24T05:44:18;9.70;94.60
27368;DHT22;14839;48.106;11.618;2023-04-24T05:46:43;9.70;94.60
27368;DHT22;14839;48.106;11.618;2023-04-24T05:49:09;9.70;94.60
27368;DHT22;14839;48.106;11.618;2023-04-24T05:51:35;9.80;94.60
27368;DHT22;14839;48.106;11.618;2023-04-24T05:54:00;9.80;94.60
27368;DHT22;14839;48.106;11.618;2023-04-24T05:56:27;9.90;94.60
27368;DHT22;14839;48.106;11.618;2023-04-24T05:58:52;9.90;94.60
27368;DHT22;14839;48.106;11.618;2023-04-24T06:01:18;9.90;94.60
27368;DHT22;14839;48.106;11.618;2023-04-24T06:03:44;9.90;94.60
27368;DHT22;14839;48.106;11.618;2023-04-24T06:06:10;9.90;94.60
27368;DHT22;14839;48.106;11.618;2023-04-24T06:08:36;9.90;94.60
27368;DHT22;14839;48.106;11.618;2023-04-24T06:11:01;10.00;94.60
27368;DHT22;14839;48.106;11.618;2023-04-24T06:13:27;10.10;94.60
27368;DHT22;14839;48.106;11.618;2023-04-24T06:15:53;10.30;94.60
27368;DHT22;14839;48.106;11.618;2023-04-24T06:18:18;10.40;94.60
27368;DHT22;14839;48.106;11.618;2023-04-24T06:20:45;10.60;94.60
27368;DHT22;14839;48.106;11.618;2023-04-24T06:23:11;10.60;94.60
27368;DHT22;14839;48.106;11.618;2023-04-24T06:25:36;10.70;94.60
27368;DHT22;14839;48.106;11.618;2023-04-24T06:28:03;10.80;94.60
27368;DHT22;14839;48.106;11.618;2023-04-24T06:30:28;10.80;94.60
27368;DHT22;14839;48.106;11.618;2023-04-24T06:32:54;10.80;94.60
27368;DHT22;14839;48.106;11.618;2023-04-24T06:35:19;10.80;94.60
27368;DHT22;14839;48.106;11.618;2023-04-24T06:37:45;10.90;94.60
27368;DHT22;14839;48.106;11.618;2023-04-24T06:40:11;10.90;94.60
27368;DHT22;14839;48.106;11.618;2023-04-24T06:42:37;10.90;94.60
27368;DHT22;14839;48.106;11.618;2023-04-24T06:45:02;10.90;94.60
27368;DHT22;14839;48.106;11.618;2023-04-24T06:47:29;11.00;94.60
27368;DHT22;14839;48.106;11.618;2023-04-24T06:49:54;11.00;94.60
27368;DHT22;14839;48.106;11.618;2023-04-24T06:52:20;11.30;94.60
27368;DHT22;14839;48.106;11.618;2023-04-24T06:54:46;11.50;94.60
27368;DHT22;14839;48.106;11.618;2023-04-24T06:57:11;11.70;94.60
27368;DHT22;14839;48.106;11.618;2023-04-24T06:59:37;11.80;94.60
27368;DHT22;14839;48.106;11.618;2023-04-24T07:02:03;12.20;94.60
27368;DHT22;14839;48.106;11.618;2023-04-24T07:04:29;12.50;94.60
27368;DHT22;14839;48.106;11.618;2023-04-24T07:06:55;12.80;94.60
27368;DHT22;14839;48.106;11.618;2023-04-24T07:09:21;13.10;94.60
27368;DHT22;14839;48.106;11.618;2023-04-24T07:11:47;13.50;94.60
27368;DHT22;14839;48.106;11.618;2023-04-24T07:14:13;13.60;94.60
27368;DHT22;14839;48.106;11.618;2023-04-24T07:16:39;13.50;94.30
27368;DHT22;14839;48.106;11.618;2023-04-24T07:19:05;13.50;94.30
27368;DHT22;14839;48.106;11.618;2023-04-24T07:21:31;13.40;94.40
27368;DHT22;14839;48.106;11.618;2023-04-24T07:23:57;13.40;94.60
27368;DHT22;14839;48.106;11.618;2023-04-24T07:26:23;13.40;94.40
27368;DHT22;14839;48.106;11.618;2023-04-24T07:28:49;13.60;94.60
27368;DHT22;14839;48.106;11.618;2023-04-24T07:31:14;14.10;92.90
27368;DHT22;14839;48.106;11.618;2023-04-24T07:33:40;14.40;92.80
27368;DHT22;14839;48.106;11.618;2023-04-24T07:36:06;15.00;92.40
27368;DHT22;14839;48.106;11.618;2023-04-24T07:38:32;15.20;90.10
27368;DHT22;14839;48.106;11.618;2023-04-24T07:40:57;15.00;88.40
27368;DHT22;14839;48.106;11.618;2023-04-24T07:43:23;14.50;88.00
27368;DHT22;14839;48.106;11.618;2023-04-24T07:45:50;13.90;89.50
27368;DHT22;14839;48.106;11.618;2023-04-24T07:48:16;13.40;91.50
27368;DHT22;14839;48.106;11.618;2023-04-24T07:50:43;13.00;92.90
27368;DHT22;14839;48.106;11.618;2023-04-24T07:53:09;12.80;93.30
27368;DHT22;14839;48.106;11.618;2023-04-24T07:55:35;12.70;94.20
27368;DHT22;14839;48.106;11.618;2023-04-24T07:58:01;12.80;94.60
27368;DHT22;14839;48.106;11.618;2023-04-24T08:00:26;12.80;93.70
27368;DHT22;14839;48.106;11.618;2023-04-24T08:02:52;12.80;93.70
27368;DHT22;14839;48.106;11.618;2023-04-24T08:05:17;12.60;93.40
27368;DHT22;14839;48.106;11.618;2023-04-24T08:07:43;12.70;94.10
27368;DHT22;14839;48.106;11.618;2023-04-24T08:10:11;12.60;93.40
27368;DHT22;14839;48.106;11.618;2023-04-24T08:12:37;12.60;93.90
27368;DHT22;14839;48.106;11.618;2023-04-24T08:15:03;12.60;93.70
27368;DHT22;14839;48.106;11.618;2023-04-24T08:17:29;12.80;94.30
27368;DHT22;14839;48.106;11.618;2023-04-24T08:19:55;12.90;92.80
27368;DHT22;14839;48.106;11.618;2023-04-24T08:22:27;13.00;92.30
27368;DHT22;14839;48.106;11.618;2023-04-24T08:24:52;13.20;92.90
27368;DHT22;14839;48.106;11.618;2023-04-24T08:27:18;13.20;92.20
27368;DHT22;14839;48.106;11.618;2023-04-24T08:29:44;12.90;92.40
27368;DHT22;14839;48.106;11.618;2023-04-24T08:32:09;12.70;92.60
27368;DHT22;14839;48.106;11.618;2023-04-24T08:34:35;12.50;93.40
27368;DHT22;14839;48.106;11.618;2023-04-24T08:37:01;12.40;94.10
27368;DHT22;14839;48.106;11.618;2023-04-24T08:39:27;12.00;94.60
27368;DHT22;14839;48.106;11.618;2023-04-24T08:41:53;11.90;94.60
27368;DHT22;14839;48.106;11.618;2023-04-24T08:44:19;11.80;94.60
27368;DHT22;14839;48.106;11.618;2023-04-24T08:46:47;11.70;94.60
27368;DHT22;14839;48.106;11.618;2023-04-24T08:49:14;11.60;94.60
27368;DHT22;14839;48.106;11.618;2023-04-24T08:51:44;11.30;94.60
27368;DHT22;14839;48.106;11.618;2023-04-24T08:54:11;11.20;94.60
27368;DHT22;14839;48.106;11.618;2023-04-24T08:56:38;11.20;94.60
27368;DHT22;14839;48.106;11.618;2023-04-24T08:59:06;11.40;94.60
27368;DHT22;14839;48.106;11.618;2023-04-24T09:01:32;11.70;94.60
27368;DHT22;14839;48.106;11.618;2023-04-24T09:04:03;12.00;93.80
27368;DHT22;14839;48.106;11.618;2023-04-24T09:06:30;12.20;93.40
27368;DHT22;14839;48.106;11.618;2023-04-24T09:09:00;12.10;91.40
27368;DHT22;14839;48.106;11.618;2023-04-24T09:11:27;11.90;91.00
27368;DHT22;14839;48.106;11.618;2023-04-24T09:13:54;11.50;91.50
27368;DHT22;14839;48.106;11.618;2023-04-24T09:16:20;11.40;91.10
27368;DHT22;14839;48.106;11.618;2023-04-24T09:18:48;11.40;92.20
27368;DHT22;14839;48.106;11.618;2023-04-24T09:21:14;11.50;92.80
27368;DHT22;14839;48.106;11.618;2023-04-24T09:23:40;11.60;91.90
27368;DHT22;14839;48.106;11.618;2023-04-24T09:26:06;11.80;93.20
27368;DHT22;14839;48.106;11.618;2023-04-24T09:28:39;11.80;92.00
27368;DHT22;14839;48.106;11.618;2023-04-24T09:33:31;12.30;90.90
27368;DHT22;14839;48.106;11.618;2023-04-24T09:35:57;12.40;91.30
27368;DHT22;14839;48.106;11.618;2023-04-24T09:38:34;12.40;90.10
27368;DHT22;14839;48.106;11.618;2023-04-24T09:41:02;12.70;90.60
27368;DHT22;14839;48.106;11.618;2023-04-24T09:43:29;13.10;88.30
27368;DHT22;14839;48.106;11.618;2023-04-24T09:46:00;13.50;87.40
27368;DHT22;14839;48.106;11.618;2023-04-24T09:48:34;13.70;86.20
27368;DHT22;14839;48.106;11.618;2023-04-24T09:51:01;14.20;83.60
27368;DHT22;14839;48.106;11.618;2023-04-24T09:53:29;14.30;83.00
27368;DHT22;14839;48.106;11.618;2023-04-24T09:55:56;14.50;83.50
27368;DHT22;14839;48.106;11.618;2023-04-24T09:58:25;14.70;82.90
27368;DHT22;14839;48.106;11.618;2023-04-24T10:00:54;14.60;82.40
27368;DHT22;14839;48.106;11.618;2023-04-24T10:03:20;14.50;82.40
27368;DHT22;14839;48.106;11.618;2023-04-24T10:05:46;14.70;83.60
27368;DHT22;14839;48.106;11.618;2023-04-24T10:08:13;14.90;82.70
27368;DHT22;14839;48.106;11.618;2023-04-24T10:10:41;14.90;81.50
27368;DHT22;14839;48.106;11.618;2023-04-24T10:13:08;14.90;80.80
27368;DHT22;14839;48.106;11.618;2023-04-24T10:15:35;14.70;79.90
27368;DHT22;14839;48.106;11.618;2023-04-24T10:18:02;14.50;82.10
27368;DHT22;14839;48.106;11.618;2023-04-24T10:20:29;14.70;80.60
27368;DHT22;14839;48.106;11.618;2023-04-24T10:22:58;14.70;82.00
27368;DHT22;14839;48.106;11.618;2023-04-24T10:25:26;14.70;83.80
27368;DHT22;14839;48.106;11.618;2023-04-24T10:27:53;15.20;82.10
27368;DHT22;14839;48.106;11.618;2023-04-24T10:30:22;15.10;79.10
27368;DHT22;14839;48.106;11.618;2023-04-24T10:32:48;14.90;80.50
27368;DHT22;14839;48.106;11.618;2023-04-24T10:35:14;14.60;82.00
27368;DHT22;14839;48.106;11.618;2023-04-24T10:37:44;14.90;81.80
27368;DHT22;14839;48.106;11.618;2023-04-24T10:40:11;15.10;80.60
27368;DHT22;14839;48.106;11.618;2023-04-24T10:42:41;15.10;79.40
27368;DHT22;14839;48.106;11.618;2023-04-24T10:45:17;15.00;78.40
27368;DHT22;14839;48.106;11.618;2023-04-24T10:47:56;14.50;81.10
27368;DHT22;14839;48.106;11.618;2023-04-24T10:50:25;14.20;82.40
27368;DHT22;14839;48.106;11.618;2023-04-24T10:52:50;14.10;83.50
27368;DHT22;14839;48.106;11.618;2023-04-24T10:58:10;13.50;84.50
27368;DHT22;14839;48.106;11.618;2023-04-24T11:00:40;13.40;86.30
27368;DHT22;14839;48.106;11.618;2023-04-24T11:03:28;12.80;90.90
27368;DHT22;14839;48.106;11.618;2023-04-24T11:06:08;12.00;93.40
27368;DHT22;14839;48.106;11.618;2023-04-24T11:08:43;11.40;94.60
27368;DHT22;14839;48.106;11.618;2023-04-24T11:11:15;11.20;94.60
27368;DHT22;14839;48.106;11.618;2023-04-24T11:16:29;11.70;94.60
27368;DHT22;14839;48.106;11.618;2023-04-24T11:19:06;12.10;94.60
27368;DHT22;14839;48.106;11.618;2023-04-24T11:21:43;12.70;94.00
27368;DHT22;14839;48.106;11.618;2023-04-24T11:24:38;13.30;90.70
27368;DHT22;14839;48.106;11.618;2023-04-24T11:27:15;14.00;90.90
27368;DHT22;14839;48.106;11.618;2023-04-24T11:30:02;14.60;89.90
27368;DHT22;14839;48.106;11.618;2023-04-24T11:35:07;15.20;85.00
27368;DHT22;14839;48.106;11.618;2023-04-24T11:37:37;15.10;82.60
27368;DHT22;14839;48.106;11.618;2023-04-24T11:40:05;15.10;83.80
27368;DHT22;14839;48.106;11.618;2023-04-24T11:42:37;15.50;83.00
27368;DHT22;14839;48.106;11.618;2023-04-24T11:45:08;15.60;83.20
27368;DHT22;14839;48.106;11.618;2023-04-24T11:47:35;15.90;84.80
27368;DHT22;14839;48.106;11.618;2023-04-24T11:50:01;15.70;82.00
27368;DHT22;14839;48.106;11.618;2023-04-24T11:52:28;15.70;81.80
27368;DHT22;14839;48.106;11.618;2023-04-24T11:54:54;15.50;81.10
27368;DHT22;14839;48.106;11.618;2023-04-24T11:57:20;15.40;82.70
27368;DHT22;14839;48.106;11.618;2023-04-24T11:59:47;15.40;80.90
27368;DHT22;14839;48.106;11.618;2023-04-24T12:02:26;15.30;83.80
27368;DHT22;14839;48.106;11.618;2023-04-24T12:04:53;15.10;83.00
27368;DHT22;14839;48.106;11.618;2023-04-24T12:07:19;14.70;82.30
27368;DHT22;14839;48.106;11.618;2023-04-24T12:12:15;13.60;87.10
27368;DHT22;14839;48.106;11.618;2023-04-24T12:14:49;13.50;86.20
27368;DHT22;14839;48.106;11.618;2023-04-24T12:17:16;13.40;85.30
27368;DHT22;14839;48.106;11.618;2023-04-24T12:19:47;13.40;87.20
27368;DHT22;14839;48.106;11.618;2023-04-24T12:22:13;13.70;85.90
27368;DHT22;14839;48.106;11.618;2023-04-24T12:24:58;13.90;85.40
27368;DHT22;14839;48.106;11.618;2023-04-24T12:27:24;14.10;84.20
27368;DHT22;14839;48.106;11.618;2023-04-24T12:29:56;14.10;84.20
27368;DHT22;14839;48.106;11.618;2023-04-24T12:32:22;14.00;85.10
27368;DHT22;14839;48.106;11.618;2023-04-24T12:34:49;13.90;86.50
27368;DHT22;14839;48.106;11.618;2023-04-24T12:37:15;14.00;85.60
27368;DHT22;14839;48.106;11.618;2023-04-24T12:40:01;14.30;88.00
27368;DHT22;14839;48.106;11.618;2023-04-24T12:42:28;14.70;85.60
27368;DHT22;14839;48.106;11.618;2023-04-24T12:45:05;15.00;84.80
27368;DHT22;14839;48.106;11.618;2023-04-24T12:47:32;15.10;85.10
27368;DHT22;14839;48.106;11.618;2023-04-24T12:49:59;15.30;84.70
27368;DHT22;14839;48.106;11.618;2023-04-24T12:52:26;15.40;81.80
27368;DHT22;14839;48.106;11.618;2023-04-24T12:54:57;15.30;81.20
27368;DHT22;14839;48.106;11.618;2023-04-24T12:57:27;15.10;81.40
27368;DHT22;14839;48.106;11.618;2023-04-24T12:59:57;14.80;84.70
27368;DHT22;14839;48.106;11.618;2023-04-24T13:02:24;14.60;85.10
27368;DHT22;14839;48.106;11.618;2023-04-24T13:04:50;14.50;86.80
27368;DHT22;14839;48.106;11.618;2023-04-24T13:07:16;14.30;85.30
27368;DHT22;14839;48.106;11.618;2023-04-24T13:09:43;14.30;85.10
27368;DHT22;14839;48.106;11.618;2023-04-24T13:12:09;14.30;85.40
27368;DHT22;14839;48.106;11.618;2023-04-24T13:14:35;14.40;82.70
27368;DHT22;14839;48.106;11.618;2023-04-24T13:17:01;14.90;83.60
27368;DHT22;14839;48.106;11.618;2023-04-24T13:19:28;15.10;82.40
27368;DHT22;14839;48.106;11.618;2023-04-24T13:21:55;15.20;80.30
27368;DHT22;14839;48.106;11.618;2023-04-24T13:24:21;15.20;81.40
27368;DHT22;14839;48.106;11.618;2023-04-24T13:26:50;15.10;79.90
27368;DHT22;14839;48.106;11.618;2023-04-24T13:29:16;14.80;79.70
27368;DHT22;14839;48.106;11.618;2023-04-24T13:31:41;14.30;80.20
27368;DHT22;14839;48.106;11.618;2023-04-24T13:34:07;13.90;81.70
27368;DHT22;14839;48.106;11.618;2023-04-24T13:36:32;13.80;83.20
27368;DHT22;14839;48.106;11.618;2023-04-24T13:38:58;13.80;83.50
27368;DHT22;14839;48.106;11.618;2023-04-24T13:41:24;13.80;83.50
27368;DHT22;14839;48.106;11.618;2023-04-24T13:43:50;13.80;83.20
27368;DHT22;14839;48.106;11.618;2023-04-24T13:46:16;14.00;83.90
27368;DHT22;14839;48.106;11.618;2023-04-24T13:48:41;14.20;82.30
27368;DHT22;14839;48.106;11.618;2023-04-24T13:51:07;14.20;81.20
27368;DHT22;14839;48.106;11.618;2023-04-24T13:53:33;14.10;82.30
27368;DHT22;14839;48.106;11.618;2023-04-24T13:56:01;14.10;81.70
27368;DHT22;14839;48.106;11.618;2023-04-24T13:58:27;14.20;81.40
27368;DHT22;14839;48.106;11.618;2023-04-24T14:00:53;14.20;80.60
27368;DHT22;14839;48.106;11.618;2023-04-24T14:03:18;14.20;79.30
27368;DHT22;14839;48.106;11.618;2023-04-24T14:05:44;14.10;80.20
27368;DHT22;14839;48.106;11.618;2023-04-24T14:08:09;14.30;79.90
27368;DHT22;14839;48.106;11.618;2023-04-24T14:10:35;14.20;78.50
27368;DHT22;14839;48.106;11.618;2023-04-24T14:13:01;14.10;79.30
27368;DHT22;14839;48.106;11.618;2023-04-24T14:15:26;14.10;78.50
27368;DHT22;14839;48.106;11.618;2023-04-24T14:17:53;14.50;80.00
27368;DHT22;14839;48.106;11.618;2023-04-24T14:20:18;14.80;76.60
27368;DHT22;14839;48.106;11.618;2023-04-24T14:22:44;14.90;76.40
27368;DHT22;14839;48.106;11.618;2023-04-24T14:25:10;14.90;75.70
27368;DHT22;14839;48.106;11.618;2023-04-24T14:27:35;14.70;74.20
27368;DHT22;14839;48.106;11.618;2023-04-24T14:30:01;14.70;77.30
27368;DHT22;14839;48.106;11.618;2023-04-24T14:32:27;14.90;76.40
27368;DHT22;14839;48.106;11.618;2023-04-24T14:34:52;14.90;72.40
27368;DHT22;14839;48.106;11.618;2023-04-24T14:37:18;14.80;68.90
27368;DHT22;14839;48.106;11.618;2023-04-24T14:39:45;15.00;69.10
27368;DHT22;14839;48.106;11.618;2023-04-24T14:42:10;15.10;69.20
27368;DHT22;14839;48.106;11.618;2023-04-24T14:44:36;15.10;69.10
27368;DHT22;14839;48.106;11.618;2023-04-24T14:47:01;15.10;69.40
27368;DHT22;14839;48.106;11.618;2023-04-24T14:49:27;15.00;70.00
27368;DHT22;14839;48.106;11.618;2023-04-24T14:51:53;15.10;69.80
27368;DHT22;14839;48.106;11.618;2023-04-24T14:54:18;15.00;68.90
27368;DHT22;14839;48.106;11.618;2023-04-24T14:56:45;15.00;70.00
27368;DHT22;14839;48.106;11.618;2023-04-24T14:59:10;14.80;68.90
27368;DHT22;14839;48.106;11.618;2023-04-24T15:01:36;14.70;68.20
27368;DHT22;14839;48.106;11.618;2023-04-24T15:04:01;14.50;68.90
27368;DHT22;14839;48.106;11.618;2023-04-24T15:06:27;14.60;69.10
27368;DHT22;14839;48.106;11.618;2023-04-24T15:08:53;14.40;67.90
27368;DHT22;14839;48.106;11.618;2023-04-24T15:11:19;14.30;69.10
27368;DHT22;14839;48.106;11.618;2023-04-24T15:13:45;14.50;67.90
27368;DHT22;14839;48.106;11.618;2023-04-24T15:16:11;14.30;68.00
27368;DHT22;14839;48.106;11.618;2023-04-24T15:18:37;14.10;67.70
27368;DHT22;14839;48.106;11.618;2023-04-24T15:21:03;14.10;68.80
27368;DHT22;14839;48.106;11.618;2023-04-24T15:23:28;14.20;68.30
27368;DHT22;14839;48.106;11.618;2023-04-24T15:25:54;14.30;67.00
27368;DHT22;14839;48.106;11.618;2023-04-24T15:28:20;14.30;68.50
27368;DHT22;14839;48.106;11.618;2023-04-24T15:30:47;14.30;69.20
27368;DHT22;14839;48.106;11.618;2023-04-24T15:33:13;14.30;66.70
27368;DHT22;14839;48.106;11.618;2023-04-24T15:35:38;14.20;64.70
27368;DHT22;14839;48.106;11.618;2023-04-24T15:38:05;14.10;65.00
27368;DHT22;14839;48.106;11.618;2023-04-24T15:40:31;13.90;64.90
27368;DHT22;14839;48.106;11.618;2023-04-24T15:42:56;13.70;65.60
27368;DHT22;14839;48.106;11.618;2023-04-24T15:45:22;13.80;65.20
27368;DHT22;14839;48.106;11.618;2023-04-24T15:47:48;13.90;65.30
27368;DHT22;14839;48.106;11.618;2023-04-24T15:50:14;14.00;65.20
27368;DHT22;14839;48.106;11.618;2023-04-24T15:52:42;14.20;65.30
27368;DHT22;14839;48.106;11.618;2023-04-24T15:55:08;14.00;65.00
27368;DHT22;14839;48.106;11.618;2023-04-24T15:57:34;13.80;64.40
27368;DHT22;14839;48.106;11.618;2023-04-24T15:59:59;13.90;64.30
27368;DHT22;14839;48.106;11.618;2023-04-24T16:02:25;13.90;63.70
27368;DHT22;14839;48.106;11.618;2023-04-24T16:04:51;13.80;65.80
27368;DHT22;14839;48.106;11.618;2023-04-24T16:07:17;13.70;66.70
27368;DHT22;14839;48.106;11.618;2023-04-24T16:09:43;13.70;67.30
27368;DHT22;14839;48.106;11.618;2023-04-24T16:12:09;13.60;65.80
27368;DHT22;14839;48.106;11.618;2023-04-24T16:14:36;13.60;68.20
27368;DHT22;14839;48.106;11.618;2023-04-24T16:17:01;13.50;66.50
27368;DHT22;14839;48.106;11.618;2023-04-24T16:19:27;13.60;66.40
27368;DHT22;14839;48.106;11.618;2023-04-24T16:21:53;13.60;66.50
27368;DHT22;14839;48.106;11.618;2023-04-24T16:24:23;13.60;64.70
27368;DHT22;14839;48.106;11.618;2023-04-24T16:26:50;13.40;65.20
27368;DHT22;14839;48.106;11.618;2023-04-24T16:29:16;13.40;64.30
27368;DHT22;14839;48.106;11.618;2023-04-24T16:31:42;13.40;64.90
27368;DHT22;14839;48.106;11.618;2023-04-24T16:34:08;13.30;64.70
27368;DHT22;14839;48.106;11.618;2023-04-24T16:36:34;13.40;64.70
27368;DHT22;14839;48.106;11.618;2023-04-24T16:39:00;13.50;65.00
27368;DHT22;14839;48.106;11.618;2023-04-24T16:41:26;13.40;65.80
27368;DHT22;14839;48.106;11.618;2023-04-24T16:43:53;13.20;65.00
27368;DHT22;14839;48.106;11.618;2023-04-24T16:46:19;13.00;65.30
27368;DHT22;14839;48.106;11.618;2023-04-24T16:48:45;12.80;66.70
27368;DHT22;14839;48.106;11.618;2023-04-24T16:51:11;12.70;68.00
27368;DHT22;14839;48.106;11.618;2023-04-24T16:53:36;12.60;69.50
27368;DHT22;14839;48.106;11.618;2023-04-24T16:56:02;12.60;70.10
27368;DHT22;14839;48.106;11.618;2023-04-24T16:58:28;12.60;70.30
27368;DHT22;14839;48.106;11.618;2023-04-24T17:00:54;12.50;71.30
27368;DHT22;14839;48.106;11.618;2023-04-24T17:03:19;12.50;70.10
27368;DHT22;14839;48.106;11.618;2023-04-24T17:05:45;12.40;69.50
27368;DHT22;14839;48.106;11.618;2023-04-24T17:08:10;12.40;70.90
27368;DHT22;14839;48.106;11.618;2023-04-24T17:10:36;12.40;70.00
27368;DHT22;14839;48.106;11.618;2023-04-24T17:13:02;12.40;71.20
27368;DHT22;14839;48.106;11.618;2023-04-24T17:15:27;12.40;71.00
27368;DHT22;14839;48.106;11.618;2023-04-24T17:17:53;12.30;71.00
27368;DHT22;14839;48.106;11.618;2023-04-24T17:20:39;12.10;70.60
27368;DHT22;14839;48.106;11.618;2023-04-24T17:23:05;12.00;71.50
27368;DHT22;14839;48.106;11.618;2023-04-24T17:25:30;11.80;72.70
27368;DHT22;14839;48.106;11.618;2023-04-24T17:27:56;11.70;71.90
27368;DHT22;14839;48.106;11.618;2023-04-24T17:30:22;11.60;71.90
27368;DHT22;14839;48.106;11.618;2023-04-24T17:32:47;11.50;71.90
27368;DHT22;14839;48.106;11.618;2023-04-24T17:35:13;11.50;70.90
27368;DHT22;14839;48.106;11.618;2023-04-24T17:37:39;11.50;72.20
27368;DHT22;14839;48.106;11.618;2023-04-24T17:40:05;11.50;72.20
27368;DHT22;14839;48.106;11.618;2023-04-24T17:42:32;11.50;72.50
27368;DHT22;14839;48.106;11.618;2023-04-24T17:44:58;11.40;72.80
27368;DHT22;14839;48.106;11.618;2023-04-24T17:47:23;11.30;71.90
27368;DHT22;14839;48.106;11.618;2023-04-24T17:49:50;11.20;71.80
27368;DHT22;14839;48.106;11.618;2023-04-24T17:52:17;11.10;71.90
27368;DHT22;14839;48.106;11.618;2023-04-24T17:54:42;11.00;71.30
27368;DHT22;14839;48.106;11.618;2023-04-24T17:57:08;11.00;71.60
27368;DHT22;14839;48.106;11.618;2023-04-24T17:59:34;10.90;72.80
27368;DHT22;14839;48.106;11.618;2023-04-24T18:01:59;10.80;73.60
27368;DHT22;14839;48.106;11.618;2023-04-24T18:04:25;10.80;73.70
27368;DHT22;14839;48.106;11.618;2023-04-24T18:06:51;10.70;73.70
27368;DHT22;14839;48.106;11.618;2023-04-24T18:09:16;10.60;74.80
27368;DHT22;14839;48.106;11.618;2023-04-24T18:11:45;10.40;74.60
27368;DHT22;14839;48.106;11.618;2023-04-24T18:14:10;10.30;74.90
27368;DHT22;14839;48.106;11.618;2023-04-24T18:16:36;10.30;75.50
27368;DHT22;14839;48.106;11.618;2023-04-24T18:19:02;10.20;76.30
27368;DHT22;14839;48.106;11.618;2023-04-24T18:21:28;10.20;75.80
27368;DHT22;14839;48.106;11.618;2023-04-24T18:23:53;10.20;75.50
27368;DHT22;14839;48.106;11.618;2023-04-24T18:26:19;10.10;76.10
27368;DHT22;14839;48.106;11.618;2023-04-24T18:28:45;10.10;76.30
27368;DHT22;14839;48.106;11.618;2023-04-24T18:31:11;10.00;78.70
27368;DHT22;14839;48.106;11.618;2023-04-24T18:33:36;9.90;77.00
27368;DHT22;14839;48.106;11.618;2023-04-24T18:36:02;9.80;78.20
27368;DHT22;14839;48.106;11.618;2023-04-24T18:38:29;9.70;77.90
27368;DHT22;14839;48.106;11.618;2023-04-24T18:40:54;9.70;78.80
27368;DHT22;14839;48.106;11.618;2023-04-24T18:43:20;9.60;79.30
27368;DHT22;14839;48.106;11.618;2023-04-24T18:45:46;9.60;80.00
27368;DHT22;14839;48.106;11.618;2023-04-24T18:48:11;9.50;80.20
27368;DHT22;14839;48.106;11.618;2023-04-24T18:50:37;9.40;81.10
27368;DHT22;14839;48.106;11.618;2023-04-24T18:53:05;9.40;81.20
27368;DHT22;14839;48.106;11.618;2023-04-24T18:55:31;9.30;81.50
27368;DHT22;14839;48.106;11.618;2023-04-24T18:57:58;9.30;81.20
27368;DHT22;14839;48.106;11.618;2023-04-24T19:00:23;9.30;81.20
27368;DHT22;14839;48.106;11.618;2023-04-24T19:02:49;9.20;81.70
27368;DHT22;14839;48.106;11.618;2023-04-24T19:05:14;9.20;81.80
27368;DHT22;14839;48.106;11.618;2023-04-24T19:07:40;9.10;83.30
27368;DHT22;14839;48.106;11.618;2023-04-24T19:10:07;9.10;83.60
27368;DHT22;14839;48.106;11.618;2023-04-24T19:12:32;9.20;82.60
27368;DHT22;14839;48.106;11.618;2023-04-24T19:14:58;9.20;82.90
27368;DHT22;14839;48.106;11.618;2023-04-24T19:17:24;9.30;82.30
27368;DHT22;14839;48.106;11.618;2023-04-24T19:19:50;9.30;82.70
27368;DHT22;14839;48.106;11.618;2023-04-24T19:22:18;9.30;82.40
27368;DHT22;14839;48.106;11.618;2023-04-24T19:24:44;9.30;82.00
27368;DHT22;14839;48.106;11.618;2023-04-24T19:27:10;9.40;82.10
27368;DHT22;14839;48.106;11.618;2023-04-24T19:29:36;9.40;82.30
27368;DHT22;14839;48.106;11.618;2023-04-24T19:32:01;9.40;81.70